sensor_id;sensor_type;location;lat;lon;timestamp;P1;durP1;ratioP1;P2;durP2;ratioP2
84175;SDS011;74306;40.114;18.304;2024-02-15T00:01:13;16.77;;;4.15;;
84175;SDS011;74306;40.114;18.304;2024-02-15T00:03:43;21.42;;;4.30;;
84175;SDS011;74306;40.114;18.304;2024-02-15T00:06:12;13.50;;;4.10;;
84175;SDS011;74306;40.114;18.304;2024-02-15T00:08:41;18.85;;;5.00;;
84175;SDS011;74306;40.114;18.304;2024-02-15T00:11:11;22.70;;;4.03;;
84175;SDS011;74306;40.114;18.304;2024-02-15T00:13:43;15.93;;;4.65;;
84175;SDS011;74306;40.114;18.304;2024-02-15T00:16:13;19.80;;;5.28;;
84175;SDS011;74306;40.114;18.304;2024-02-15T00:18:43;17.58;;;4.78;;
84175;SDS011;74306;40.114;18.304;2024-02-15T00:21:13;16.73;;;4.07;;
84175;SDS011;74306;40.114;18.304;2024-02-15T00:23:42;15.63;;;5.07;;
84175;SDS011;74306;40.114;18.304;2024-02-15T00:26:12;19.02;;;4.72;;
84175;SDS011;74306;40.114;18.304;2024-02-15T00:28:42;17.13;;;4.68;;
84175;SDS011;74306;40.114;18.304;2024-02-15T00:31:12;15.90;;;4.68;;
84175;SDS011;74306;40.114;18.304;2024-02-15T00:33:41;16.25;;;4.30;;
84175;SDS011;74306;40.114;18.304;2024-02-15T00:36:10;13.77;;;4.07;;
84175;SDS011;74306;40.114;18.304;2024-02-15T00:38:40;16.20;;;4.80;;
84175;SDS011;74306;40.114;18.304;2024-02-15T00:41:11;16.63;;;4.50;;
84175;SDS011;74306;40.114;18.304;2024-02-15T00:43:41;13.57;;;4.68;;
84175;SDS011;74306;40.114;18.304;2024-02-15T00:46:12;15.13;;;4.75;;
84175;SDS011;74306;40.114;18.304;2024-02-15T00:48:41;18.08;;;4.57;;
84175;SDS011;74306;40.114;18.304;2024-02-15T00:51:11;13.18;;;5.25;;
84175;SDS011;74306;40.114;18.304;2024-02-15T00:53:40;15.95;;;4.38;;
84175;SDS011;74306;40.114;18.304;2024-02-15T00:56:09;15.70;;;4.75;;
84175;SDS011;74306;40.114;18.304;2024-02-15T00:58:39;15.25;;;4.43;;
84175;SDS011;74306;40.114;18.304;2024-02-15T01:01:09;18.92;;;4.88;;
84175;SDS011;74306;40.114;18.304;2024-02-15T01:03:39;19.55;;;4.93;;
84175;SDS011;74306;40.114;18.304;2024-02-15T01:06:09;15.10;;;4.63;;
84175;SDS011;74306;40.114;18.304;2024-02-15T01:08:38;15.52;;;4.18;;
84175;SDS011;74306;40.114;18.304;2024-02-15T01:11:07;15.55;;;4.40;;
84175;SDS011;74306;40.114;18.304;2024-02-15T01:13:37;13.90;;;4.60;;
84175;SDS011;74306;40.114;18.304;2024-02-15T01:16:06;12.02;;;4.57;;
84175;SDS011;74306;40.114;18.304;2024-02-15T01:18:38;16.83;;;5.07;;
84175;SDS011;74306;40.114;18.304;2024-02-15T01:21:07;13.32;;;4.43;;
84175;SDS011;74306;40.114;18.304;2024-02-15T01:23:38;12.45;;;4.22;;
84175;SDS011;74306;40.114;18.304;2024-02-15T01:26:08;13.88;;;5.10;;
84175;SDS011;74306;40.114;18.304;2024-02-15T01:28:39;14.20;;;4.45;;
84175;SDS011;74306;40.114;18.304;2024-02-15T01:31:10;12.90;;;4.72;;
84175;SDS011;74306;40.114;18.304;2024-02-15T01:33:41;15.13;;;4.70;;
84175;SDS011;74306;40.114;18.304;2024-02-15T01:36:13;11.95;;;4.53;;
84175;SDS011;74306;40.114;18.304;2024-02-15T01:38:44;14.55;;;5.00;;
84175;SDS011;74306;40.114;18.304;2024-02-15T01:41:13;10.43;;;4.50;;
84175;SDS011;74306;40.114;18.304;2024-02-15T01:43:43;12.52;;;4.63;;
84175;SDS011;74306;40.114;18.304;2024-02-15T01:46:13;13.90;;;4.55;;
84175;SDS011;74306;40.114;18.304;2024-02-15T01:48:45;13.32;;;4.65;;
84175;SDS011;74306;40.114;18.304;2024-02-15T01:51:15;13.57;;;4.30;;
84175;SDS011;74306;40.114;18.304;2024-02-15T01:53:45;14.38;;;4.53;;
84175;SDS011;74306;40.114;18.304;2024-02-15T01:56:14;10.85;;;4.30;;
84175;SDS011;74306;40.114;18.304;2024-02-15T01:58:46;12.02;;;4.57;;
84175;SDS011;74306;40.114;18.304;2024-02-15T02:01:15;13.15;;;4.22;;
84175;SDS011;74306;40.114;18.304;2024-02-15T02:03:47;10.38;;;4.35;;
84175;SDS011;74306;40.114;18.304;2024-02-15T02:06:16;14.13;;;4.53;;
84175;SDS011;74306;40.114;18.304;2024-02-15T02:08:45;9.27;;;4.15;;
84175;SDS011;74306;40.114;18.304;2024-02-15T02:11:15;15.20;;;4.60;;
84175;SDS011;74306;40.114;18.304;2024-02-15T02:13:44;11.88;;;4.05;;
84175;SDS011;74306;40.114;18.304;2024-02-15T02:16:26;8.93;;;3.70;;
84175;SDS011;74306;40.114;18.304;2024-02-15T02:18:57;13.55;;;4.18;;
84175;SDS011;74306;40.114;18.304;2024-02-15T02:21:27;14.45;;;4.88;;
84175;SDS011;74306;40.114;18.304;2024-02-15T02:23:57;10.13;;;4.22;;
84175;SDS011;74306;40.114;18.304;2024-02-15T02:26:28;14.45;;;4.68;;
84175;SDS011;74306;40.114;18.304;2024-02-15T02:28:59;13.43;;;4.82;;
84175;SDS011;74306;40.114;18.304;2024-02-15T02:31:32;13.23;;;4.53;;
84175;SDS011;74306;40.114;18.304;2024-02-15T02:34:03;16.30;;;4.38;;
84175;SDS011;74306;40.114;18.304;2024-02-15T02:36:34;14.18;;;4.60;;
84175;SDS011;74306;40.114;18.304;2024-02-15T02:39:03;14.02;;;4.90;;
84175;SDS011;74306;40.114;18.304;2024-02-15T02:41:36;11.50;;;4.20;;
84175;SDS011;74306;40.114;18.304;2024-02-15T02:44:05;12.80;;;5.18;;
84175;SDS011;74306;40.114;18.304;2024-02-15T02:46:34;12.50;;;4.60;;
84175;SDS011;74306;40.114;18.304;2024-02-15T02:49:04;11.57;;;4.63;;
84175;SDS011;74306;40.114;18.304;2024-02-15T02:51:34;11.18;;;3.92;;
84175;SDS011;74306;40.114;18.304;2024-02-15T02:54:04;14.20;;;4.68;;
84175;SDS011;74306;40.114;18.304;2024-02-15T02:56:33;15.75;;;4.65;;
84175;SDS011;74306;40.114;18.304;2024-02-15T02:59:04;11.45;;;4.15;;
84175;SDS011;74306;40.114;18.304;2024-02-15T03:01:34;14.60;;;4.05;;
84175;SDS011;74306;40.114;18.304;2024-02-15T03:04:04;15.93;;;4.60;;
84175;SDS011;74306;40.114;18.304;2024-02-15T03:06:33;14.30;;;4.40;;
84175;SDS011;74306;40.114;18.304;2024-02-15T03:09:03;13.80;;;4.38;;
84175;SDS011;74306;40.114;18.304;2024-02-15T03:11:36;9.90;;;4.18;;
84175;SDS011;74306;40.114;18.304;2024-02-15T03:14:05;15.75;;;4.90;;
84175;SDS011;74306;40.114;18.304;2024-02-15T03:16:35;13.38;;;4.45;;
84175;SDS011;74306;40.114;18.304;2024-02-15T03:19:05;12.15;;;4.25;;
84175;SDS011;74306;40.114;18.304;2024-02-15T03:21:36;20.30;;;4.70;;
84175;SDS011;74306;40.114;18.304;2024-02-15T03:24:05;13.27;;;3.97;;
84175;SDS011;74306;40.114;18.304;2024-02-15T03:26:36;14.88;;;4.35;;
84175;SDS011;74306;40.114;18.304;2024-02-15T03:29:07;16.13;;;4.43;;
84175;SDS011;74306;40.114;18.304;2024-02-15T03:31:37;15.45;;;4.68;;
84175;SDS011;74306;40.114;18.304;2024-02-15T03:34:07;10.10;;;4.22;;
84175;SDS011;74306;40.114;18.304;2024-02-15T03:36:38;14.93;;;4.55;;
84175;SDS011;74306;40.114;18.304;2024-02-15T03:39:07;13.10;;;4.63;;
84175;SDS011;74306;40.114;18.304;2024-02-15T03:41:38;16.52;;;4.55;;
84175;SDS011;74306;40.114;18.304;2024-02-15T03:44:08;17.23;;;4.55;;
84175;SDS011;74306;40.114;18.304;2024-02-15T03:46:38;9.60;;;4.15;;
84175;SDS011;74306;40.114;18.304;2024-02-15T03:49:07;12.00;;;4.15;;
84175;SDS011;74306;40.114;18.304;2024-02-15T03:51:38;11.75;;;4.28;;
84175;SDS011;74306;40.114;18.304;2024-02-15T03:54:09;10.23;;;3.80;;
84175;SDS011;74306;40.114;18.304;2024-02-15T03:56:47;12.63;;;4.00;;
84175;SDS011;74306;40.114;18.304;2024-02-15T03:59:20;13.85;;;4.50;;
84175;SDS011;74306;40.114;18.304;2024-02-15T04:01:53;12.75;;;4.28;;
84175;SDS011;74306;40.114;18.304;2024-02-15T04:04:23;13.18;;;4.03;;
84175;SDS011;74306;40.114;18.304;2024-02-15T04:06:53;16.20;;;4.32;;
84175;SDS011;74306;40.114;18.304;2024-02-15T04:09:22;11.55;;;3.97;;
84175;SDS011;74306;40.114;18.304;2024-02-15T04:11:54;12.82;;;4.15;;
84175;SDS011;74306;40.114;18.304;2024-02-15T04:14:24;10.30;;;4.30;;
84175;SDS011;74306;40.114;18.304;2024-02-15T04:16:54;8.68;;;4.47;;
84175;SDS011;74306;40.114;18.304;2024-02-15T04:19:24;12.35;;;3.80;;
84175;SDS011;74306;40.114;18.304;2024-02-15T04:21:54;10.13;;;4.18;;
84175;SDS011;74306;40.114;18.304;2024-02-15T04:24:23;10.85;;;4.22;;
84175;SDS011;74306;40.114;18.304;2024-02-15T04:26:55;15.52;;;4.53;;
84175;SDS011;74306;40.114;18.304;2024-02-15T04:29:25;11.20;;;4.30;;
84175;SDS011;74306;40.114;18.304;2024-02-15T04:31:54;12.07;;;4.22;;
84175;SDS011;74306;40.114;18.304;2024-02-15T04:34:24;9.35;;;3.92;;
84175;SDS011;74306;40.114;18.304;2024-02-15T04:36:53;9.02;;;4.30;;
84175;SDS011;74306;40.114;18.304;2024-02-15T04:39:22;13.20;;;4.43;;
84175;SDS011;74306;40.114;18.304;2024-02-15T04:41:55;11.02;;;4.22;;
84175;SDS011;74306;40.114;18.304;2024-02-15T04:44:24;13.38;;;4.07;;
84175;SDS011;74306;40.114;18.304;2024-02-15T04:46:54;16.25;;;4.88;;
84175;SDS011;74306;40.114;18.304;2024-02-15T04:49:24;10.35;;;4.10;;
84175;SDS011;74306;40.114;18.304;2024-02-15T04:51:54;9.90;;;4.10;;
84175;SDS011;74306;40.114;18.304;2024-02-15T04:54:25;13.50;;;4.53;;
84175;SDS011;74306;40.114;18.304;2024-02-15T04:56:56;12.23;;;4.70;;
84175;SDS011;74306;40.114;18.304;2024-02-15T04:59:25;11.55;;;4.45;;
84175;SDS011;74306;40.114;18.304;2024-02-15T05:01:57;10.80;;;4.15;;
84175;SDS011;74306;40.114;18.304;2024-02-15T05:04:27;12.20;;;4.65;;
84175;SDS011;74306;40.114;18.304;2024-02-15T05:06:57;10.73;;;4.78;;
84175;SDS011;74306;40.114;18.304;2024-02-15T05:09:26;13.27;;;4.28;;
84175;SDS011;74306;40.114;18.304;2024-02-15T05:11:57;12.85;;;4.22;;
84175;SDS011;74306;40.114;18.304;2024-02-15T05:14:29;9.80;;;4.20;;
84175;SDS011;74306;40.114;18.304;2024-02-15T05:16:58;12.80;;;4.60;;
84175;SDS011;74306;40.114;18.304;2024-02-15T05:19:28;10.63;;;4.72;;
84175;SDS011;74306;40.114;18.304;2024-02-15T05:21:58;13.63;;;4.65;;
84175;SDS011;74306;40.114;18.304;2024-02-15T05:24:28;11.63;;;4.07;;
84175;SDS011;74306;40.114;18.304;2024-02-15T05:27:00;12.30;;;5.20;;
84175;SDS011;74306;40.114;18.304;2024-02-15T05:29:29;10.27;;;4.90;;
84175;SDS011;74306;40.114;18.304;2024-02-15T05:32:01;14.43;;;4.47;;
84175;SDS011;74306;40.114;18.304;2024-02-15T05:34:31;13.82;;;5.30;;
84175;SDS011;74306;40.114;18.304;2024-02-15T05:37:01;9.55;;;4.57;;
84175;SDS011;74306;40.114;18.304;2024-02-15T05:39:30;14.20;;;4.80;;
84175;SDS011;74306;40.114;18.304;2024-02-15T05:42:01;11.50;;;4.88;;
84175;SDS011;74306;40.114;18.304;2024-02-15T05:44:30;12.45;;;4.78;;
84175;SDS011;74306;40.114;18.304;2024-02-15T05:46:59;16.63;;;5.28;;
84175;SDS011;74306;40.114;18.304;2024-02-15T05:49:29;12.55;;;5.30;;
84175;SDS011;74306;40.114;18.304;2024-02-15T05:51:58;11.35;;;4.60;;
84175;SDS011;74306;40.114;18.304;2024-02-15T05:54:27;12.90;;;5.07;;
84175;SDS011;74306;40.114;18.304;2024-02-15T05:56:57;12.25;;;5.10;;
84175;SDS011;74306;40.114;18.304;2024-02-15T05:59:30;15.43;;;5.10;;
84175;SDS011;74306;40.114;18.304;2024-02-15T06:02:00;13.82;;;5.45;;
84175;SDS011;74306;40.114;18.304;2024-02-15T06:04:30;14.45;;;5.43;;
84175;SDS011;74306;40.114;18.304;2024-02-15T06:06:59;15.23;;;5.30;;
84175;SDS011;74306;40.114;18.304;2024-02-15T06:09:29;9.65;;;5.10;;
84175;SDS011;74306;40.114;18.304;2024-02-15T06:12:00;13.70;;;5.22;;
84175;SDS011;74306;40.114;18.304;2024-02-15T06:14:31;14.73;;;5.35;;
84175;SDS011;74306;40.114;18.304;2024-02-15T06:17:01;12.45;;;5.32;;
84175;SDS011;74306;40.114;18.304;2024-02-15T06:19:31;12.13;;;5.30;;
84175;SDS011;74306;40.114;18.304;2024-02-15T06:22:00;14.77;;;5.53;;
84175;SDS011;74306;40.114;18.304;2024-02-15T06:24:31;13.10;;;5.25;;
84175;SDS011;74306;40.114;18.304;2024-02-15T06:27:01;14.48;;;5.15;;
84175;SDS011;74306;40.114;18.304;2024-02-15T06:29:32;12.18;;;5.30;;
84175;SDS011;74306;40.114;18.304;2024-02-15T06:32:24;16.80;;;5.57;;
84175;SDS011;74306;40.114;18.304;2024-02-15T06:35:10;11.90;;;4.82;;
84175;SDS011;74306;40.114;18.304;2024-02-15T06:38:06;14.38;;;5.15;;
84175;SDS011;74306;40.114;18.304;2024-02-15T06:40:53;12.10;;;4.90;;
84175;SDS011;74306;40.114;18.304;2024-02-15T06:43:22;13.60;;;4.97;;
84175;SDS011;74306;40.114;18.304;2024-02-15T06:45:53;12.77;;;5.25;;
84175;SDS011;74306;40.114;18.304;2024-02-15T06:48:22;12.75;;;4.93;;
84175;SDS011;74306;40.114;18.304;2024-02-15T06:50:53;14.35;;;5.22;;
84175;SDS011;74306;40.114;18.304;2024-02-15T06:53:22;12.15;;;4.93;;
84175;SDS011;74306;40.114;18.304;2024-02-15T06:55:52;15.38;;;5.53;;
84175;SDS011;74306;40.114;18.304;2024-02-15T06:58:22;11.48;;;4.68;;
84175;SDS011;74306;40.114;18.304;2024-02-15T07:00:53;11.60;;;5.40;;
84175;SDS011;74306;40.114;18.304;2024-02-15T07:03:22;17.50;;;5.32;;
84175;SDS011;74306;40.114;18.304;2024-02-15T07:05:51;32.22;;;5.47;;
84175;SDS011;74306;40.114;18.304;2024-02-15T07:08:21;14.55;;;5.50;;
84175;SDS011;74306;40.114;18.304;2024-02-15T07:10:51;13.25;;;5.13;;
84175;SDS011;74306;40.114;18.304;2024-02-15T07:13:20;12.90;;;5.50;;
84175;SDS011;74306;40.114;18.304;2024-02-15T07:15:50;14.55;;;5.13;;
84175;SDS011;74306;40.114;18.304;2024-02-15T07:18:20;11.80;;;4.75;;
84175;SDS011;74306;40.114;18.304;2024-02-15T07:20:51;15.20;;;4.63;;
84175;SDS011;74306;40.114;18.304;2024-02-15T07:23:21;9.95;;;4.05;;
84175;SDS011;74306;40.114;18.304;2024-02-15T07:25:51;10.15;;;4.28;;
84175;SDS011;74306;40.114;18.304;2024-02-15T07:28:21;8.90;;;4.43;;
84175;SDS011;74306;40.114;18.304;2024-02-15T07:30:51;8.93;;;4.55;;
84175;SDS011;74306;40.114;18.304;2024-02-15T07:33:23;10.73;;;4.43;;
84175;SDS011;74306;40.114;18.304;2024-02-15T07:35:52;12.77;;;4.45;;
84175;SDS011;74306;40.114;18.304;2024-02-15T07:38:22;14.07;;;4.25;;
84175;SDS011;74306;40.114;18.304;2024-02-15T07:40:56;11.38;;;4.70;;
84175;SDS011;74306;40.114;18.304;2024-02-15T07:43:28;8.90;;;4.38;;
84175;SDS011;74306;40.114;18.304;2024-02-15T07:45:57;9.00;;;3.80;;
84175;SDS011;74306;40.114;18.304;2024-02-15T07:48:28;8.35;;;3.40;;
84175;SDS011;74306;40.114;18.304;2024-02-15T07:50:59;10.48;;;3.70;;
84175;SDS011;74306;40.114;18.304;2024-02-15T07:53:28;8.45;;;3.40;;
84175;SDS011;74306;40.114;18.304;2024-02-15T07:55:58;12.38;;;3.90;;
84175;SDS011;74306;40.114;18.304;2024-02-15T07:58:27;7.75;;;3.50;;
84175;SDS011;74306;40.114;18.304;2024-02-15T08:00:58;11.20;;;3.47;;
84175;SDS011;74306;40.114;18.304;2024-02-15T08:03:29;7.07;;;3.30;;
84175;SDS011;74306;40.114;18.304;2024-02-15T08:05:59;6.82;;;3.28;;
84175;SDS011;74306;40.114;18.304;2024-02-15T08:08:28;8.60;;;3.03;;
84175;SDS011;74306;40.114;18.304;2024-02-15T08:10:57;6.78;;;3.00;;
84175;SDS011;74306;40.114;18.304;2024-02-15T08:13:26;6.90;;;3.00;;
84175;SDS011;74306;40.114;18.304;2024-02-15T08:15:56;8.00;;;2.72;;
84175;SDS011;74306;40.114;18.304;2024-02-15T08:18:26;8.63;;;2.67;;
84175;SDS011;74306;40.114;18.304;2024-02-15T08:20:56;6.22;;;2.78;;
84175;SDS011;74306;40.114;18.304;2024-02-15T08:23:26;7.95;;;2.80;;
84175;SDS011;74306;40.114;18.304;2024-02-15T08:25:55;7.22;;;3.05;;
84175;SDS011;74306;40.114;18.304;2024-02-15T08:28:25;7.15;;;2.70;;
84175;SDS011;74306;40.114;18.304;2024-02-15T08:30:55;6.53;;;2.45;;
84175;SDS011;74306;40.114;18.304;2024-02-15T08:33:25;23.58;;;3.83;;
84175;SDS011;74306;40.114;18.304;2024-02-15T08:35:57;6.18;;;2.33;;
84175;SDS011;74306;40.114;18.304;2024-02-15T08:38:29;6.57;;;2.50;;
84175;SDS011;74306;40.114;18.304;2024-02-15T08:40:58;6.05;;;2.92;;
84175;SDS011;74306;40.114;18.304;2024-02-15T08:43:29;5.70;;;2.50;;
84175;SDS011;74306;40.114;18.304;2024-02-15T08:45:59;5.82;;;2.50;;
84175;SDS011;74306;40.114;18.304;2024-02-15T08:48:29;8.82;;;2.50;;
84175;SDS011;74306;40.114;18.304;2024-02-15T08:51:00;5.85;;;2.40;;
84175;SDS011;74306;40.114;18.304;2024-02-15T08:53:30;7.90;;;2.40;;
84175;SDS011;74306;40.114;18.304;2024-02-15T08:56:00;7.45;;;2.45;;
84175;SDS011;74306;40.114;18.304;2024-02-15T08:58:29;5.35;;;2.22;;
84175;SDS011;74306;40.114;18.304;2024-02-15T09:00:59;6.95;;;2.35;;
84175;SDS011;74306;40.114;18.304;2024-02-15T09:03:30;4.75;;;2.25;;
84175;SDS011;74306;40.114;18.304;2024-02-15T09:06:00;8.25;;;2.60;;
84175;SDS011;74306;40.114;18.304;2024-02-15T09:08:31;6.35;;;2.22;;
84175;SDS011;74306;40.114;18.304;2024-02-15T09:11:00;8.07;;;2.35;;
84175;SDS011;74306;40.114;18.304;2024-02-15T09:13:31;4.63;;;2.15;;
84175;SDS011;74306;40.114;18.304;2024-02-15T09:16:04;6.80;;;2.40;;
84175;SDS011;74306;40.114;18.304;2024-02-15T09:18:34;4.45;;;2.10;;
84175;SDS011;74306;40.114;18.304;2024-02-15T09:21:05;6.70;;;2.20;;
84175;SDS011;74306;40.114;18.304;2024-02-15T09:23:34;8.35;;;2.92;;
84175;SDS011;74306;40.114;18.304;2024-02-15T09:26:04;4.63;;;2.03;;
84175;SDS011;74306;40.114;18.304;2024-02-15T09:28:33;6.93;;;2.20;;
84175;SDS011;74306;40.114;18.304;2024-02-15T09:31:03;4.55;;;2.00;;
84175;SDS011;74306;40.114;18.304;2024-02-15T09:33:32;7.40;;;2.10;;
84175;SDS011;74306;40.114;18.304;2024-02-15T09:36:01;7.55;;;2.33;;
84175;SDS011;74306;40.114;18.304;2024-02-15T09:38:33;4.72;;;2.05;;
84175;SDS011;74306;40.114;18.304;2024-02-15T09:41:03;8.15;;;2.33;;
84175;SDS011;74306;40.114;18.304;2024-02-15T09:43:34;5.80;;;2.13;;
84175;SDS011;74306;40.114;18.304;2024-02-15T09:46:04;5.65;;;2.10;;
84175;SDS011;74306;40.114;18.304;2024-02-15T09:48:34;6.75;;;2.08;;
84175;SDS011;74306;40.114;18.304;2024-02-15T09:51:04;7.78;;;2.20;;
84175;SDS011;74306;40.114;18.304;2024-02-15T09:53:41;5.97;;;1.77;;
84175;SDS011;74306;40.114;18.304;2024-02-15T09:56:11;5.20;;;1.98;;
84175;SDS011;74306;40.114;18.304;2024-02-15T09:58:42;7.22;;;2.30;;
84175;SDS011;74306;40.114;18.304;2024-02-15T10:01:12;12.02;;;2.10;;
84175;SDS011;74306;40.114;18.304;2024-02-15T10:03:43;6.13;;;2.00;;
84175;SDS011;74306;40.114;18.304;2024-02-15T10:06:12;5.57;;;2.20;;
84175;SDS011;74306;40.114;18.304;2024-02-15T10:08:43;10.38;;;2.00;;
84175;SDS011;74306;40.114;18.304;2024-02-15T10:11:14;7.45;;;1.98;;
84175;SDS011;74306;40.114;18.304;2024-02-15T10:13:43;5.40;;;1.67;;
84175;SDS011;74306;40.114;18.304;2024-02-15T10:16:14;6.80;;;2.00;;
84175;SDS011;74306;40.114;18.304;2024-02-15T10:18:44;8.70;;;1.95;;
84175;SDS011;74306;40.114;18.304;2024-02-15T10:21:24;6.90;;;1.90;;
84175;SDS011;74306;40.114;18.304;2024-02-15T10:24:06;9.68;;;2.25;;
84175;SDS011;74306;40.114;18.304;2024-02-15T10:26:37;6.85;;;1.95;;
84175;SDS011;74306;40.114;18.304;2024-02-15T10:29:07;3.70;;;1.55;;
84175;SDS011;74306;40.114;18.304;2024-02-15T10:31:38;7.22;;;2.05;;
84175;SDS011;74306;40.114;18.304;2024-02-15T10:34:09;6.47;;;1.60;;
84175;SDS011;74306;40.114;18.304;2024-02-15T10:36:43;6.18;;;1.75;;
84175;SDS011;74306;40.114;18.304;2024-02-15T10:39:14;4.10;;;1.58;;
84175;SDS011;74306;40.114;18.304;2024-02-15T10:41:48;3.72;;;1.73;;
84175;SDS011;74306;40.114;18.304;2024-02-15T10:44:19;4.97;;;1.77;;
84175;SDS011;74306;40.114;18.304;2024-02-15T10:46:52;4.05;;;1.75;;
84175;SDS011;74306;40.114;18.304;2024-02-15T10:49:22;4.15;;;1.80;;
84175;SDS011;74306;40.114;18.304;2024-02-15T10:51:55;5.47;;;2.10;;
84175;SDS011;74306;40.114;18.304;2024-02-15T10:54:38;4.05;;;1.60;;
84175;SDS011;74306;40.114;18.304;2024-02-15T10:57:11;3.25;;;1.50;;
84175;SDS011;74306;40.114;18.304;2024-02-15T10:59:43;2.65;;;1.52;;
84175;SDS011;74306;40.114;18.304;2024-02-15T11:02:26;3.00;;;1.50;;
84175;SDS011;74306;40.114;18.304;2024-02-15T11:05:01;4.07;;;1.55;;
84175;SDS011;74306;40.114;18.304;2024-02-15T11:07:36;3.92;;;1.77;;
84175;SDS011;74306;40.114;18.304;2024-02-15T11:10:08;6.25;;;1.75;;
84175;SDS011;74306;40.114;18.304;2024-02-15T11:12:38;3.30;;;1.90;;
84175;SDS011;74306;40.114;18.304;2024-02-15T11:15:12;5.10;;;1.95;;
84175;SDS011;74306;40.114;18.304;2024-02-15T11:21:11;3.78;;;1.70;;
84175;SDS011;74306;40.114;18.304;2024-02-15T11:23:41;4.72;;;1.90;;
84175;SDS011;74306;40.114;18.304;2024-02-15T11:32:34;3.75;;;1.85;;
84175;SDS011;74306;40.114;18.304;2024-02-15T11:35:06;5.38;;;1.58;;
84175;SDS011;74306;40.114;18.304;2024-02-15T11:37:53;6.00;;;1.90;;
84175;SDS011;74306;40.114;18.304;2024-02-15T11:46:25;4.82;;;1.80;;
84175;SDS011;74306;40.114;18.304;2024-02-15T11:48:58;7.55;;;1.88;;
84175;SDS011;74306;40.114;18.304;2024-02-15T11:51:28;3.35;;;1.40;;
84175;SDS011;74306;40.114;18.304;2024-02-15T11:54:04;3.25;;;1.30;;
84175;SDS011;74306;40.114;18.304;2024-02-15T11:56:50;3.10;;;1.75;;
84175;SDS011;74306;40.114;18.304;2024-02-15T11:59:39;2.25;;;1.35;;
84175;SDS011;74306;40.114;18.304;2024-02-15T12:02:21;4.57;;;1.95;;
84175;SDS011;74306;40.114;18.304;2024-02-15T12:05:08;3.58;;;1.50;;
84175;SDS011;74306;40.114;18.304;2024-02-15T12:08:00;4.88;;;1.50;;
84175;SDS011;74306;40.114;18.304;2024-02-15T12:10:56;4.07;;;1.50;;
84175;SDS011;74306;40.114;18.304;2024-02-15T12:13:58;5.70;;;2.92;;
84175;SDS011;74306;40.114;18.304;2024-02-15T12:16:46;3.33;;;2.00;;
84175;SDS011;74306;40.114;18.304;2024-02-15T12:19:29;6.45;;;2.35;;
84175;SDS011;74306;40.114;18.304;2024-02-15T12:21:59;3.78;;;1.80;;
84175;SDS011;74306;40.114;18.304;2024-02-15T12:24:29;3.80;;;1.75;;
84175;SDS011;74306;40.114;18.304;2024-02-15T12:27:00;4.82;;;1.70;;
84175;SDS011;74306;40.114;18.304;2024-02-15T12:29:30;3.75;;;1.50;;
84175;SDS011;74306;40.114;18.304;2024-02-15T12:32:01;6.07;;;2.08;;
84175;SDS011;74306;40.114;18.304;2024-02-15T12:34:31;5.65;;;2.67;;
84175;SDS011;74306;40.114;18.304;2024-02-15T12:37:07;5.43;;;2.97;;
84175;SDS011;74306;40.114;18.304;2024-02-15T12:39:37;3.20;;;2.05;;
84175;SDS011;74306;40.114;18.304;2024-02-15T12:42:08;4.93;;;1.80;;
84175;SDS011;74306;40.114;18.304;2024-02-15T12:44:41;3.80;;;1.65;;
84175;SDS011;74306;40.114;18.304;2024-02-15T12:47:19;4.25;;;1.65;;
84175;SDS011;74306;40.114;18.304;2024-02-15T12:49:50;3.35;;;1.65;;
84175;SDS011;74306;40.114;18.304;2024-02-15T12:52:35;4.30;;;1.77;;
84175;SDS011;74306;40.114;18.304;2024-02-15T12:55:13;4.70;;;1.38;;
84175;SDS011;74306;40.114;18.304;2024-02-15T12:57:44;5.00;;;1.83;;
84175;SDS011;74306;40.114;18.304;2024-02-15T13:00:17;3.83;;;1.90;;
84175;SDS011;74306;40.114;18.304;2024-02-15T13:02:50;3.58;;;1.67;;
84175;SDS011;74306;40.114;18.304;2024-02-15T13:05:20;3.75;;;1.60;;
84175;SDS011;74306;40.114;18.304;2024-02-15T13:07:50;3.60;;;1.65;;
84175;SDS011;74306;40.114;18.304;2024-02-15T13:10:22;3.22;;;1.63;;
84175;SDS011;74306;40.114;18.304;2024-02-15T13:12:53;4.47;;;1.77;;
84175;SDS011;74306;40.114;18.304;2024-02-15T13:15:23;4.32;;;2.15;;
84175;SDS011;74306;40.114;18.304;2024-02-15T13:18:01;5.97;;;2.50;;
84175;SDS011;74306;40.114;18.304;2024-02-15T13:20:32;3.47;;;1.63;;
84175;SDS011;74306;40.114;18.304;2024-02-15T13:23:02;3.70;;;1.63;;
84175;SDS011;74306;40.114;18.304;2024-02-15T13:25:36;6.28;;;2.65;;
84175;SDS011;74306;40.114;18.304;2024-02-15T13:28:07;2.92;;;1.65;;
84175;SDS011;74306;40.114;18.304;2024-02-15T13:30:37;3.83;;;1.40;;
84175;SDS011;74306;40.114;18.304;2024-02-15T13:33:10;3.22;;;1.73;;
84175;SDS011;74306;40.114;18.304;2024-02-15T13:35:39;3.33;;;1.63;;
84175;SDS011;74306;40.114;18.304;2024-02-15T13:38:09;4.13;;;1.60;;
84175;SDS011;74306;40.114;18.304;2024-02-15T13:40:42;3.95;;;1.60;;
84175;SDS011;74306;40.114;18.304;2024-02-15T13:43:12;4.25;;;2.20;;
84175;SDS011;74306;40.114;18.304;2024-02-15T13:45:41;6.25;;;2.83;;
84175;SDS011;74306;40.114;18.304;2024-02-15T13:48:13;10.15;;;3.13;;
84175;SDS011;74306;40.114;18.304;2024-02-15T13:50:43;6.68;;;2.90;;
84175;SDS011;74306;40.114;18.304;2024-02-15T13:53:13;6.97;;;2.38;;
84175;SDS011;74306;40.114;18.304;2024-02-15T13:55:42;3.33;;;1.80;;
84175;SDS011;74306;40.114;18.304;2024-02-15T13:58:12;5.50;;;2.05;;
84175;SDS011;74306;40.114;18.304;2024-02-15T14:00:41;6.07;;;2.33;;
84175;SDS011;74306;40.114;18.304;2024-02-15T14:03:11;4.68;;;2.20;;
84175;SDS011;74306;40.114;18.304;2024-02-15T14:05:43;4.57;;;2.00;;
84175;SDS011;74306;40.114;18.304;2024-02-15T14:08:13;3.25;;;1.90;;
84175;SDS011;74306;40.114;18.304;2024-02-15T14:10:42;3.30;;;1.65;;
84175;SDS011;74306;40.114;18.304;2024-02-15T14:13:12;3.97;;;1.77;;
84175;SDS011;74306;40.114;18.304;2024-02-15T14:15:41;3.22;;;1.70;;
84175;SDS011;74306;40.114;18.304;2024-02-15T14:18:12;4.07;;;2.10;;
84175;SDS011;74306;40.114;18.304;2024-02-15T14:20:42;4.60;;;2.05;;
84175;SDS011;74306;40.114;18.304;2024-02-15T14:23:11;6.20;;;2.00;;
84175;SDS011;74306;40.114;18.304;2024-02-15T14:25:42;7.20;;;2.05;;
84175;SDS011;74306;40.114;18.304;2024-02-15T14:28:12;5.40;;;1.98;;
84175;SDS011;74306;40.114;18.304;2024-02-15T14:30:41;6.45;;;2.05;;
84175;SDS011;74306;40.114;18.304;2024-02-15T14:33:30;4.82;;;1.90;;
84175;SDS011;74306;40.114;18.304;2024-02-15T14:36:00;4.65;;;1.75;;
84175;SDS011;74306;40.114;18.304;2024-02-15T14:38:31;3.75;;;1.80;;
84175;SDS011;74306;40.114;18.304;2024-02-15T14:41:01;5.60;;;2.22;;
84175;SDS011;74306;40.114;18.304;2024-02-15T14:43:33;4.78;;;2.10;;
84175;SDS011;74306;40.114;18.304;2024-02-15T14:46:03;6.95;;;2.10;;
84175;SDS011;74306;40.114;18.304;2024-02-15T14:48:36;4.18;;;1.98;;
84175;SDS011;74306;40.114;18.304;2024-02-15T14:51:07;9.73;;;2.38;;
84175;SDS011;74306;40.114;18.304;2024-02-15T14:53:37;6.05;;;2.38;;
84175;SDS011;74306;40.114;18.304;2024-02-15T14:56:06;5.82;;;1.98;;
84175;SDS011;74306;40.114;18.304;2024-02-15T14:58:36;4.35;;;1.98;;
84175;SDS011;74306;40.114;18.304;2024-02-15T15:01:05;7.50;;;2.03;;
84175;SDS011;74306;40.114;18.304;2024-02-15T15:03:38;7.88;;;2.20;;
84175;SDS011;74306;40.114;18.304;2024-02-15T15:06:07;4.80;;;1.95;;
84175;SDS011;74306;40.114;18.304;2024-02-15T15:08:54;3.92;;;2.03;;